Aurora, WV (26705)

6:45 PM EST on February 08, 2016 (GMT -0500)
1 1/2 Mi. South of Terra Alta, Snowy Creek WV | | Change Station
CLOSE
Current Station
Personal Weather Station
Location: Terra Alta, WV
Elevation: 2842 ft
Nearby Weather Stations

Elev 2842 ft 39.40 °N, 79.58 °W | Updated 1 minute ago

Overcast
Overcast
30.6 °F
Feels Like 27 °F
N
3.7
Wind Variable Wind from WNW

Today
High -- | Low -- °F
--% Chance of Precip.
Yesterday
High -- | Low -- °F
Precip. -- in
Pressure 29.55 in
Visibility 10.0 miles
Clouds Clear
Windchill 27 °F
Dew Point 27 °F
Humidity 86%
Rainfall 0.97 in
Snow Depth Not available.
7:18 AM 5:46 PM
New Moon, 0% visible
METAR K2G4 082330Z AUTO 19004KT 10SM CLR M02/M02 A2955 RMK AO1
Pressure 29.55 in
Visibility 10.0 miles
Clouds Clear
Windchill 27 °F
Dew Point 27 °F
Humidity 86%
Rainfall 0.97 in
Snow Depth Not available.
7:18 AM 5:46 PM
New Moon, 0% visible
METAR K2G4 082330Z AUTO 19004KT 10SM CLR M02/M02 A2955 RMK AO1

10-Day Weather Forecast

Almanac

Astronomy

Feb. 08, 2016 Rise Set
Actual Time
Civil Twilight
Nautical Twilight
Astronomical Twilight
Moon
Length of Visible Light
Length of Day
Tomorrow will be .
, % of the Moon is Illuminated

Today's Extremes

State Highs State Lows

Community

WunderPhotos

Upload Photos

1,891,527 photos uploaded!

WunderBlog® & News

Nearby

Air Quality

  Air Quality AQ Index Pollutant
Not available.

Snow Depth

Station Depth Elevation

Earthquake Activity

City Distance Mag. Time & Date
Minimum magnitude displayed is 2.5.

Coastal Water Temperatures

Place Temperature

Stations

Nearby Weather Stations

Station Location Temp. Windchill Dew Point Humidity Wind Precip. Elev Updated Type
                   

Watches & Warnings

There are currently no watches in effect.